createdAt,value
2023-04-03T00:02:03.947Z,101580.41
2023-04-03T00:07:08.656Z,101573.75
2023-04-03T00:12:12.028Z,101585.03
2023-04-03T00:17:15.103Z,101574.53
2023-04-03T00:22:19.786Z,101584.25
2023-04-03T00:27:23.132Z,101594.84
2023-04-03T00:32:26.430Z,101590.16
2023-04-03T00:37:32.550Z,101599.72
2023-04-03T00:42:35.792Z,101585.50
2023-04-03T00:47:41.142Z,101592.00
2023-04-03T00:52:48.506Z,101592.97
2023-04-03T00:57:52.143Z,101593.38
2023-04-03T01:02:57.483Z,101609.06
2023-04-03T01:08:06.109Z,101601.75
2023-04-03T01:13:24.944Z,101602.78
2023-04-03T01:18:29.664Z,101607.53
2023-04-03T01:23:52.004Z,101604.38
2023-04-03T01:28:56.882Z,101611.56
2023-04-03T01:34:02.552Z,101611.78
2023-04-03T01:39:08.326Z,101614.63
2023-04-03T01:44:11.963Z,101620.84
2023-04-03T01:49:16.690Z,101627.88
2023-04-03T01:54:21.503Z,101627.13
2023-04-03T01:59:24.667Z,101633.09
2023-04-03T02:04:29.389Z,101630.44
2023-04-03T02:09:32.772Z,101639.22
2023-04-03T02:14:35.963Z,101653.13
2023-04-03T02:19:40.758Z,101652.41
2023-04-03T02:24:43.830Z,101648.22
2023-04-03T02:29:46.997Z,101659.44
2023-04-03T02:34:51.533Z,101674.25
2023-04-03T02:39:54.671Z,101670.09
2023-04-03T02:44:59.473Z,101679.13
2023-04-03T02:50:05.985Z,101670.09
2023-04-03T02:55:09.955Z,101679.72
2023-04-03T03:00:14.209Z,101676.47
2023-04-03T03:05:19.482Z,101690.47
2023-04-03T03:10:22.962Z,101684.72
2023-04-03T03:15:26.254Z,101688.38
2023-04-03T03:20:30.834Z,101696.38
2023-04-03T03:25:34.122Z,101688.78
2023-04-03T03:30:37.410Z,101702.72
2023-04-03T03:35:42.945Z,101702.84
2023-04-03T03:40:46.448Z,101702.28
2023-04-03T03:45:53.606Z,101705.78
2023-04-03T03:50:58.316Z,101713.59
2023-04-03T03:56:03.580Z,101713.72
2023-04-03T04:01:08.797Z,101714.69
2023-04-03T04:06:14.025Z,101723.34
2023-04-03T04:11:17.261Z,101722.72
2023-04-03T04:16:20.572Z,101728.84
2023-04-03T04:21:25.158Z,101734.19
2023-04-03T04:26:28.467Z,101729.09
2023-04-03T04:31:34.878Z,101734.34
2023-04-03T04:36:39.762Z,101745.56
2023-04-03T04:41:42.877Z,101749.88
2023-04-03T04:46:46.665Z,101749.91
2023-04-03T04:51:52.513Z,101763.56
2023-04-03T04:56:57.363Z,101755.91
2023-04-03T05:02:01.763Z,101756.75
2023-04-03T05:07:08.322Z,101767.91
2023-04-03T05:12:12.127Z,101763.56
2023-04-03T05:17:18.535Z,101762.63
2023-04-03T05:22:23.451Z,101772.88
2023-04-03T05:27:29.365Z,101768.41
2023-04-03T05:32:32.580Z,101772.66
2023-04-03T05:37:42.123Z,101787.88
2023-04-03T05:42:45.459Z,101779.16
2023-04-03T05:47:48.964Z,101785.69
2023-04-03T05:52:56.369Z,101793.13
2023-04-03T05:57:59.686Z,101795.47
2023-04-03T06:03:03.318Z,101801.94
2023-04-03T06:08:08.379Z,101812.69
2023-04-03T06:13:11.855Z,101806.34
2023-04-03T06:18:15.387Z,101802.69
2023-04-03T06:23:20.110Z,101808.13
2023-04-03T06:28:25.769Z,101795.06
2023-04-03T06:33:29.944Z,101797.91
2023-04-03T06:38:35.331Z,101797.88
2023-04-03T06:43:38.441Z,101799.09
2023-04-03T06:48:42.139Z,101805.41
2023-04-03T06:53:48.440Z,101812.22
2023-04-03T06:58:52.732Z,101823.69
2023-04-03T07:03:57.016Z,101809.13
2023-04-03T07:09:02.350Z,101820.22
2023-04-03T07:14:06.808Z,101823.25
2023-04-03T07:19:13.280Z,101818.63
2023-04-03T07:24:18.422Z,101824.59
2023-04-03T07:29:22.675Z,101831.88
2023-04-03T07:34:26.330Z,101841.53
2023-04-03T07:39:33.029Z,101844.19
2023-04-03T07:44:36.751Z,101841.56
2023-04-03T07:49:41.620Z,101841.91
2023-04-03T07:54:46.754Z,101833.81
2023-04-03T07:59:49.909Z,101838.72
2023-04-03T08:04:53.295Z,101823.31
2023-04-03T08:09:58.300Z,101823.56
2023-04-03T08:15:02.796Z,101835.19
2023-04-03T08:20:07.880Z,101831.03
2023-04-03T08:25:12.977Z,101836.03
2023-04-03T08:30:16.731Z,101839.59
2023-04-03T08:35:21.639Z,101850.19
2023-04-03T08:40:26.827Z,101847.16
2023-04-03T08:45:43.658Z,101844.97
2023-04-03T08:50:52.957Z,101850.22
2023-04-03T08:55:59.139Z,101858.94
2023-04-03T09:01:06.035Z,101850.88
2023-04-03T09:06:16.210Z,101849.94
2023-04-03T09:11:27.982Z,101841.69
2023-04-03T09:16:41.750Z,101855.94
2023-04-03T09:21:45.292Z,101844.09
2023-04-03T09:26:55.937Z,101852.78
2023-04-03T09:32:02.204Z,101848.97
2023-04-03T09:37:08.394Z,101852.56
2023-04-03T09:42:21.985Z,101853.88
2023-04-03T09:47:27.525Z,101844.97
2023-04-03T09:52:32.640Z,101831.81
2023-04-03T09:57:37.562Z,101848.22
2023-04-03T10:02:54.613Z,101835.66
2023-04-03T10:08:13.965Z,101831.22
2023-04-03T10:13:22.433Z,101837.50
2023-04-03T10:18:35.338Z,101817.53
2023-04-03T10:23:52.861Z,101819.09
2023-04-03T10:29:11.694Z,101811.44
2023-04-03T10:34:25.737Z,101822.91
2023-04-03T10:39:36.157Z,101822.97
2023-04-03T10:44:54.927Z,101798.13
2023-04-03T10:50:09.477Z,101801.91
2023-04-03T10:55:38.271Z,101806.09
2023-04-03T11:00:48.326Z,101796.00
2023-04-03T11:05:55.865Z,101802.03
2023-04-03T11:11:07.176Z,101810.31
2023-04-03T11:16:17.394Z,101787.78
2023-04-03T11:21:24.456Z,101794.66
2023-04-03T11:26:33.590Z,101787.56
2023-04-03T11:31:50.251Z,101781.09
2023-04-03T11:36:58.822Z,101776.88
2023-04-03T11:42:17.987Z,101769.22
2023-04-03T11:47:52.284Z,101777.63
2023-04-03T11:53:06.204Z,101777.63
2023-04-03T11:58:16.270Z,101768.00
2023-04-03T12:04:08.363Z,101768.00
2023-04-03T12:09:25.821Z,101770.66
2023-04-03T12:14:33.254Z,101757.97
2023-04-03T12:19:45.979Z,101755.59
2023-04-03T12:24:52.969Z,101753.41
2023-04-03T12:30:08.096Z,101747.50
2023-04-03T12:35:22.545Z,101762.31
2023-04-03T12:40:34.102Z,101754.38
2023-04-03T12:45:46.059Z,101745.34
2023-04-03T12:50:52.894Z,101748.28
2023-04-03T12:55:57.152Z,101744.75
2023-04-03T13:01:04.979Z,101743.59
2023-04-03T13:06:19.728Z,101735.94
2023-04-03T13:11:25.500Z,101741.22
2023-04-03T13:16:29.119Z,101737.47
2023-04-03T13:21:38.029Z,101741.47
2023-04-03T13:26:41.804Z,101738.72
2023-04-03T13:31:45.202Z,101730.03
2023-04-03T13:36:58.849Z,101734.25
2023-04-03T13:42:04.649Z,101735.81
2023-04-03T13:47:21.479Z,101732.63
2023-04-03T13:52:31.969Z,101720.09
2023-04-03T13:57:36.316Z,101732.66
2023-04-03T14:02:41.839Z,101730.78
2023-04-03T14:07:49.272Z,101734.63
2023-04-03T14:12:52.703Z,101722.69
2023-04-03T14:17:59.184Z,101725.50
2023-04-03T14:23:05.478Z,101735.16
2023-04-03T14:28:18.780Z,101717.19
2023-04-03T14:33:24.598Z,101727.06
2023-04-03T14:38:34.840Z,101721.28
2023-04-03T14:43:38.227Z,101711.41
2023-04-03T14:48:42.267Z,101715.69
2023-04-03T14:53:51.174Z,101717.06
2023-04-03T14:59:03.221Z,101716.84
2023-04-03T15:04:14.489Z,101719.22
2023-04-03T15:09:23.209Z,101724.94
2023-04-03T15:14:36.501Z,101718.50
2023-04-03T15:19:43.644Z,101719.56
2023-04-03T15:24:48.375Z,101723.13
2023-04-03T15:29:51.695Z,101718.84
2023-04-03T15:34:59.116Z,101725.00
2023-04-03T15:40:03.770Z,101714.94
2023-04-03T15:45:09.088Z,101717.06
2023-04-03T15:50:12.730Z,101712.03
2023-04-03T15:55:18.299Z,101713.75
2023-04-03T16:00:26.969Z,101715.19
2023-04-03T16:05:30.726Z,101712.09
2023-04-03T16:10:42.980Z,101712.78
2023-04-03T16:15:46.537Z,101722.75
2023-04-03T16:20:53.693Z,101714.38
2023-04-03T16:25:58.342Z,101718.13
2023-04-03T16:31:14.608Z,101713.63
2023-04-03T16:36:21.406Z,101710.53
2023-04-03T16:41:26.078Z,101715.28
2023-04-03T16:46:30.977Z,101714.72
2023-04-03T16:51:34.424Z,101720.34
2023-04-03T16:56:39.196Z,101710.16
2023-04-03T17:01:42.930Z,101716.78
2023-04-03T17:06:46.267Z,101715.25
2023-04-03T17:11:54.442Z,101707.00
2023-04-03T17:16:58.178Z,101709.81
2023-04-03T17:22:04.304Z,101717.47
2023-04-03T17:27:13.280Z,101707.97
2023-04-03T17:32:17.105Z,101715.06
2023-04-03T17:37:29.643Z,101722.19
2023-04-03T17:42:34.305Z,101723.97
2023-04-03T17:47:39.464Z,101724.78
2023-04-03T17:52:43.437Z,101729.28
2023-04-03T17:57:53.741Z,101728.13
2023-04-03T18:02:57.469Z,101723.06
2023-04-03T18:08:13.745Z,101725.84
2023-04-03T18:13:21.853Z,101727.16
2023-04-03T18:18:26.568Z,101726.78
2023-04-03T18:23:36.262Z,101728.84
2023-04-03T18:28:51.275Z,101733.13
2023-04-03T18:33:59.263Z,101735.44
2023-04-03T18:39:05.199Z,101733.13
2023-04-03T18:44:18.487Z,101732.38
2023-04-03T18:49:22.626Z,101739.38
2023-04-03T18:54:27.297Z,101741.84
2023-04-03T18:59:37.738Z,101740.75
2023-04-03T19:04:43.790Z,101732.25
2023-04-03T19:09:54.614Z,101733.88
2023-04-03T19:14:59.157Z,101733.16
2023-04-03T19:20:03.682Z,101733.34
2023-04-03T19:25:08.582Z,101733.59
2023-04-03T19:30:18.538Z,101735.41
2023-04-03T19:35:21.834Z,101731.91
2023-04-03T19:40:33.709Z,101725.81
2023-04-03T19:45:46.080Z,101730.22
2023-04-03T19:50:49.973Z,101729.50
2023-04-03T19:55:58.070Z,101731.28
2023-04-03T20:01:02.745Z,101733.00
2023-04-03T20:06:14.895Z,101733.09
2023-04-03T20:11:18.566Z,101739.19
2023-04-03T20:16:26.967Z,101739.06
2023-04-03T20:21:35.778Z,101728.03
2023-04-03T20:26:46.275Z,101723.63
2023-04-03T20:31:53.494Z,101723.69
2023-04-03T20:36:57.137Z,101714.22
2023-04-03T20:42:00.741Z,101718.56
2023-04-03T20:47:05.886Z,101715.28
2023-04-03T20:52:10.363Z,101711.09
2023-04-03T20:57:16.757Z,101705.91
2023-04-03T21:02:21.885Z,101702.47
2023-04-03T21:08:03.227Z,101704.28
2023-04-03T21:13:43.581Z,101707.00
2023-04-03T21:19:09.959Z,101701.81
2023-04-03T21:24:14.753Z,101708.94
2023-04-03T21:29:17.989Z,101712.31
2023-04-03T21:34:25.213Z,101704.53
2023-04-03T21:39:31.359Z,101707.22
2023-04-03T21:44:34.587Z,101705.34
2023-04-03T21:49:39.141Z,101709.63
2023-04-03T21:54:42.565Z,101701.25
2023-04-03T21:59:46.528Z,101698.66
2023-04-03T22:04:51.432Z,101688.41
2023-04-03T22:09:54.734Z,101694.63
2023-04-03T22:14:58.286Z,101694.88
2023-04-03T22:20:03.607Z,101687.03
2023-04-03T22:25:07.566Z,101678.59
2023-04-03T22:30:11.711Z,101676.06
2023-04-03T22:35:17.082Z,101674.25
2023-04-03T22:40:20.488Z,101672.63
2023-04-03T22:45:23.665Z,101667.63
2023-04-03T22:50:28.392Z,101665.16
2023-04-03T22:55:31.632Z,101664.50
2023-04-03T23:00:35.025Z,101660.03
2023-04-03T23:05:42.320Z,101658.34
2023-04-03T23:10:45.555Z,101660.94
2023-04-03T23:15:54.308Z,101668.09
2023-04-03T23:21:00.073Z,101664.72
2023-04-03T23:26:04.081Z,101671.59
2023-04-03T23:31:08.225Z,101670.16
2023-04-03T23:36:16.096Z,101673.81
2023-04-03T23:41:19.694Z,101671.09
2023-04-03T23:46:23.330Z,101680.63
2023-04-03T23:51:28.437Z,101671.28
2023-04-03T23:56:32.343Z,101668.63
